Arma, Kansas
Current Conditions -  °F | °C
As of 9:35 AM on Friday 24 Oct 2014 (Local Time) from KPTS Reporting Station
Clear Clear  
Wind Chill: 59°   Ceiling: Unl
Heat Index: 59°   Visibility: 10mi
Dew Point: 58°   Wind: 7mph
Humidity: 97%   Direction: 220°SW
Pressure: 30.1"   Gusts: NA
Location:  37.54°N, 94.7°W
Report Text: KPTS 241435Z AUTO 22006KT 10SM CLR 15/14 A3010 RMK AO2 T01480144
Loading
Personal Weather Stations






























Interactive Weather Map
Tropical Storm Tracking
New forecast layout! Learn more

10-Day Weather Forecast

Advertisements
Track Severe Weather on mobile